createdAt,value
2022-11-12T00:00:44.090Z,14.02
2022-11-12T00:03:11.453Z,15.57
2022-11-12T00:05:38.815Z,13.95
2022-11-12T00:08:06.052Z,15.00
2022-11-12T00:10:33.546Z,13.50
2022-11-12T00:13:00.714Z,14.98
2022-11-12T00:15:27.972Z,14.77
2022-11-12T00:17:57.412Z,13.68
2022-11-12T00:20:24.574Z,13.48
2022-11-12T00:22:51.853Z,16.95
2022-11-12T00:25:18.999Z,15.50
2022-11-12T00:27:46.383Z,13.67
2022-11-12T00:30:13.743Z,13.30
2022-11-12T00:32:41.207Z,14.57
2022-11-12T00:35:13.438Z,14.40
2022-11-12T00:37:41.283Z,15.18
2022-11-12T00:40:08.760Z,15.77
2022-11-12T00:42:36.090Z,16.50
2022-11-12T00:45:03.177Z,16.67
2022-11-12T00:47:30.230Z,17.05
2022-11-12T00:49:57.306Z,18.60
2022-11-12T00:52:24.351Z,20.30
2022-11-12T00:54:51.492Z,20.20
2022-11-12T00:57:18.557Z,16.85
2022-11-12T00:59:45.630Z,20.17
2022-11-12T01:02:12.833Z,19.08
2022-11-12T01:04:40.006Z,20.37
2022-11-12T01:07:07.181Z,19.58
2022-11-12T01:09:34.505Z,18.52
2022-11-12T01:12:01.712Z,17.38
2022-11-12T01:14:28.955Z,16.90
2022-11-12T01:16:56.242Z,16.80
2022-11-12T01:19:23.374Z,16.83
2022-11-12T01:21:50.535Z,17.00
2022-11-12T01:24:17.715Z,17.40
2022-11-12T01:26:44.924Z,17.02
2022-11-12T01:29:12.194Z,20.03
2022-11-12T01:31:39.442Z,19.98
2022-11-12T01:34:08.027Z,20.35
2022-11-12T01:36:36.837Z,20.42
2022-11-12T01:39:05.068Z,18.67
2022-11-12T01:41:33.735Z,18.13
2022-11-12T01:44:18.025Z,23.85
2022-11-12T01:46:49.989Z,27.88
2022-11-12T01:49:22.340Z,24.88
2022-11-12T01:51:50.820Z,22.13
2022-11-12T01:54:18.888Z,23.17
2022-11-12T01:56:46.573Z,24.88
2022-11-12T01:59:17.574Z,25.55
2022-11-12T02:01:44.749Z,23.45
2022-11-12T02:04:12.487Z,26.23
2022-11-12T02:06:40.903Z,23.20
2022-11-12T02:09:08.119Z,21.45
2022-11-12T02:11:35.396Z,21.85
2022-11-12T02:14:02.838Z,20.45
2022-11-12T02:16:33.496Z,19.83
2022-11-12T02:19:00.955Z,18.40
2022-11-12T02:21:28.198Z,21.85
2022-11-12T02:24:06.466Z,19.48
2022-11-12T02:26:37.815Z,18.15
2022-11-12T02:29:05.085Z,22.17
2022-11-12T02:31:32.435Z,24.87
2022-11-12T02:33:59.650Z,19.80
2022-11-12T02:36:27.154Z,20.25
2022-11-12T02:38:54.432Z,22.50
2022-11-12T02:41:21.734Z,22.38
2022-11-12T02:43:48.986Z,23.53
2022-11-12T02:46:16.290Z,21.52
2022-11-12T02:48:43.685Z,35.88
2022-11-12T02:51:11.003Z,28.90
2022-11-12T02:53:38.282Z,26.08
2022-11-12T02:56:05.793Z,26.60
2022-11-12T02:58:33.368Z,34.35
2022-11-12T03:01:00.726Z,42.28
2022-11-12T03:03:27.973Z,32.05
2022-11-12T03:05:59.383Z,24.05
2022-11-12T03:08:27.136Z,26.93
2022-11-12T03:10:54.894Z,29.35
2022-11-12T03:13:22.161Z,25.48
2022-11-12T03:15:49.296Z,34.95
2022-11-12T03:18:16.515Z,29.77
2022-11-12T03:20:43.889Z,39.57
2022-11-12T03:23:11.938Z,63.10
2022-11-12T03:25:39.075Z,31.80
2022-11-12T03:28:10.414Z,48.53
2022-11-12T03:30:39.209Z,27.90
2022-11-12T03:33:07.258Z,23.67
2022-11-12T03:35:34.849Z,24.10
2022-11-12T03:38:02.493Z,26.40
2022-11-12T03:40:30.261Z,29.13
2022-11-12T03:42:57.818Z,24.50
2022-11-12T03:45:26.077Z,31.87
2022-11-12T03:47:54.775Z,28.55
2022-11-12T03:50:23.934Z,33.60
2022-11-12T03:52:52.839Z,26.02
2022-11-12T03:55:21.039Z,26.00
2022-11-12T03:57:48.802Z,29.50
2022-11-12T04:00:16.798Z,42.42
2022-11-12T04:02:43.840Z,64.82
2022-11-12T04:05:29.624Z,47.33
2022-11-12T04:08:17.097Z,59.35
2022-11-12T04:10:44.276Z,73.53
2022-11-12T04:13:29.662Z,28.70
2022-11-12T04:16:23.318Z,40.45
2022-11-12T04:19:10.051Z,30.05
2022-11-12T04:21:51.113Z,29.02
2022-11-12T04:24:39.653Z,25.37
2022-11-12T04:27:07.457Z,26.30
2022-11-12T04:29:53.411Z,34.30
2022-11-12T04:32:20.655Z,33.40
2022-11-12T04:34:47.871Z,30.85
2022-11-12T04:37:15.898Z,28.57
2022-11-12T04:39:45.002Z,27.27
2022-11-12T04:42:30.918Z,27.52
2022-11-12T04:45:02.345Z,39.83
2022-11-12T04:47:30.415Z,29.55
2022-11-12T04:49:57.732Z,25.30
2022-11-12T04:52:25.082Z,26.15
2022-11-12T04:54:53.064Z,22.67
2022-11-12T04:57:20.264Z,21.75
2022-11-12T04:59:47.831Z,24.92
2022-11-12T05:02:15.742Z,81.67
2022-11-12T05:04:42.962Z,55.35
2022-11-12T05:07:10.620Z,31.25
2022-11-12T05:09:37.883Z,30.55
2022-11-12T05:12:05.140Z,21.38
2022-11-12T05:14:32.391Z,22.70
2022-11-12T05:16:59.767Z,18.90
2022-11-12T05:19:27.155Z,21.05
2022-11-12T05:22:17.399Z,22.15
2022-11-12T05:24:54.406Z,20.77
2022-11-12T05:27:21.884Z,20.80
2022-11-12T05:29:48.926Z,20.65
2022-11-12T05:32:17.102Z,21.63
2022-11-12T05:34:44.127Z,23.27
2022-11-12T05:37:12.398Z,21.90
2022-11-12T05:39:39.458Z,19.53
2022-11-12T05:42:13.098Z,19.83
2022-11-12T05:44:40.967Z,25.33
2022-11-12T05:47:08.127Z,21.67
2022-11-12T05:49:35.333Z,20.38
2022-11-12T05:52:02.565Z,22.23
2022-11-12T05:54:29.709Z,33.95
2022-11-12T05:56:56.885Z,25.90
2022-11-12T05:59:27.414Z,25.27
2022-11-12T06:01:54.870Z,23.52
2022-11-12T06:04:23.237Z,21.93
2022-11-12T06:06:50.689Z,21.90
2022-11-12T06:09:17.864Z,21.88
2022-11-12T06:11:45.043Z,22.50
2022-11-12T06:14:12.311Z,23.35
2022-11-12T06:16:39.617Z,20.53
2022-11-12T06:19:06.899Z,23.08
2022-11-12T06:21:34.015Z,22.00
2022-11-12T06:24:01.602Z,22.08
2022-11-12T06:26:30.485Z,21.33
2022-11-12T06:28:57.708Z,24.40
2022-11-12T06:31:25.250Z,22.75
2022-11-12T06:33:52.634Z,23.17
2022-11-12T06:36:20.686Z,21.70
2022-11-12T06:38:48.169Z,21.63
2022-11-12T06:41:16.244Z,20.90
2022-11-12T06:43:44.073Z,23.58
2022-11-12T06:46:15.687Z,23.05
2022-11-12T06:48:43.022Z,20.23
2022-11-12T06:51:11.672Z,20.92
2022-11-12T06:53:38.723Z,21.50
2022-11-12T06:56:06.505Z,19.85
2022-11-12T06:58:33.796Z,22.35
2022-11-12T07:01:12.419Z,22.15
2022-11-12T07:03:39.910Z,22.17
2022-11-12T07:06:07.964Z,22.47
2022-11-12T07:08:35.169Z,20.65
2022-11-12T07:11:02.278Z,23.13
2022-11-12T07:13:31.404Z,20.27
2022-11-12T07:15:59.305Z,22.48
2022-11-12T07:18:27.236Z,20.37
2022-11-12T07:21:01.641Z,20.17
2022-11-12T07:23:29.291Z,19.58
2022-11-12T07:26:00.025Z,20.00
2022-11-12T07:28:27.650Z,19.83
2022-11-12T07:30:58.754Z,20.10
2022-11-12T07:33:26.391Z,22.73
2022-11-12T07:36:07.218Z,20.45
2022-11-12T07:38:35.832Z,22.70
2022-11-12T07:41:04.183Z,23.25
2022-11-12T07:43:31.984Z,21.83
2022-11-12T07:46:00.085Z,24.48
2022-11-12T07:48:27.834Z,24.77
2022-11-12T07:51:00.230Z,21.92
2022-11-12T07:53:27.298Z,22.48
2022-11-12T07:55:55.600Z,22.63
2022-11-12T07:58:22.883Z,23.48
2022-11-12T08:00:50.361Z,23.33
2022-11-12T08:03:17.673Z,21.08
2022-11-12T08:05:44.801Z,21.52
2022-11-12T08:08:11.962Z,21.63
2022-11-12T08:10:39.238Z,23.95
2022-11-12T08:13:06.369Z,25.50
2022-11-12T08:15:33.719Z,23.15
2022-11-12T08:18:00.765Z,26.33
2022-11-12T08:20:27.781Z,25.57
2022-11-12T08:22:54.936Z,29.52
2022-11-12T08:25:22.086Z,25.60
2022-11-12T08:27:49.226Z,25.75
2022-11-12T08:30:16.406Z,25.40
2022-11-12T08:32:43.577Z,29.13
2022-11-12T08:35:10.975Z,30.10
2022-11-12T08:37:38.371Z,23.10
2022-11-12T08:40:05.741Z,26.23
2022-11-12T08:42:32.994Z,26.17
2022-11-12T08:45:00.222Z,23.97
2022-11-12T08:47:27.322Z,22.05
2022-11-12T08:49:54.524Z,22.30
2022-11-12T08:52:21.898Z,23.42
2022-11-12T08:54:49.153Z,23.67
2022-11-12T08:57:16.716Z,20.97
2022-11-12T08:59:43.956Z,19.83
2022-11-12T09:02:14.301Z,20.80
2022-11-12T09:04:41.442Z,22.52
2022-11-12T09:07:09.676Z,21.50
2022-11-12T09:09:37.031Z,19.70
2022-11-12T09:12:12.447Z,18.38
2022-11-12T09:14:42.383Z,18.90
2022-11-12T09:17:09.563Z,22.48
2022-11-12T09:19:42.647Z,23.48
2022-11-12T09:22:10.105Z,19.23
2022-11-12T09:24:37.189Z,18.23
2022-11-12T09:27:04.387Z,18.42
2022-11-12T09:29:31.461Z,21.77
2022-11-12T09:31:59.508Z,17.50
2022-11-12T09:34:26.610Z,20.10
2022-11-12T09:36:53.675Z,17.77
2022-11-12T09:39:20.727Z,18.10
2022-11-12T09:41:47.770Z,17.70
2022-11-12T09:44:18.788Z,19.20
2022-11-12T09:46:52.866Z,20.73
2022-11-12T09:49:21.781Z,16.52
2022-11-12T09:52:02.173Z,19.10
2022-11-12T09:54:33.126Z,17.92
2022-11-12T09:57:00.237Z,18.65
2022-11-12T09:59:29.433Z,17.90
2022-11-12T10:02:00.906Z,19.17
2022-11-12T10:04:46.747Z,15.70
2022-11-12T10:07:30.187Z,18.90
2022-11-12T10:10:02.821Z,16.92
2022-11-12T10:12:53.175Z,16.50
2022-11-12T10:15:55.467Z,17.30
2022-11-12T10:18:22.658Z,16.85
2022-11-12T10:20:56.941Z,18.00
2022-11-12T10:23:33.600Z,19.52
2022-11-12T10:26:02.304Z,18.10
2022-11-12T10:28:34.346Z,16.13
2022-11-12T10:31:16.964Z,15.85
2022-11-12T10:33:47.439Z,18.98
2022-11-12T10:36:33.384Z,17.92
2022-11-12T10:39:00.613Z,20.13
2022-11-12T10:41:30.833Z,15.88
2022-11-12T10:44:02.131Z,17.20
2022-11-12T10:46:30.621Z,16.52
2022-11-12T10:48:59.855Z,18.52
2022-11-12T10:51:28.689Z,17.57
2022-11-12T10:53:55.783Z,19.92
2022-11-12T10:56:30.303Z,19.63
2022-11-12T10:59:10.888Z,16.60
2022-11-12T11:01:43.004Z,17.77
2022-11-12T11:04:31.111Z,16.43
2022-11-12T11:06:59.695Z,15.13
2022-11-12T11:09:27.041Z,17.85
2022-11-12T11:11:54.406Z,19.00
2022-11-12T11:14:24.819Z,16.90
2022-11-12T11:16:53.060Z,15.40
2022-11-12T11:19:20.310Z,14.65
2022-11-12T11:21:50.448Z,16.90
2022-11-12T11:24:26.450Z,16.00
2022-11-12T11:27:12.610Z,17.95
2022-11-12T11:29:52.250Z,17.07
2022-11-12T11:32:37.013Z,15.23
2022-11-12T11:35:17.091Z,13.93
2022-11-12T11:38:23.307Z,13.63
2022-11-12T11:41:09.362Z,14.02
2022-11-12T11:43:51.792Z,16.50
2022-11-12T11:46:36.663Z,13.50
2022-11-12T11:49:22.301Z,13.88
2022-11-12T11:52:05.123Z,13.63
2022-11-12T11:54:57.264Z,15.13
2022-11-12T11:57:29.052Z,13.67
2022-11-12T11:59:56.094Z,16.23
2022-11-12T12:02:33.738Z,13.45
2022-11-12T12:05:03.491Z,14.25
2022-11-12T12:08:03.179Z,13.70
2022-11-12T12:11:06.369Z,14.00
2022-11-12T12:13:33.138Z,11.95
2022-11-12T12:16:06.390Z,13.13
2022-11-12T12:18:39.577Z,13.70
2022-11-12T12:21:15.732Z,11.68
2022-11-12T12:23:53.581Z,12.63
2022-11-12T12:26:39.691Z,11.02
2022-11-12T12:29:19.636Z,10.55
2022-11-12T12:31:53.117Z,12.82
2022-11-12T12:34:40.698Z,13.75
2022-11-12T12:37:11.938Z,14.47
2022-11-12T12:40:00.013Z,14.48
2022-11-12T12:42:29.624Z,12.45
2022-11-12T12:45:03.321Z,13.02
2022-11-12T12:47:31.903Z,12.73
2022-11-12T12:49:59.972Z,11.43
2022-11-12T12:52:27.396Z,12.25
2022-11-12T12:54:54.592Z,10.02
2022-11-12T12:57:27.860Z,11.23
2022-11-12T13:00:15.649Z,14.07
2022-11-12T13:02:43.147Z,11.03
2022-11-12T13:05:24.049Z,12.85
2022-11-12T13:07:52.012Z,9.82
2022-11-12T13:10:34.680Z,11.45
2022-11-12T13:13:03.549Z,10.05
2022-11-12T13:15:53.465Z,8.80
2022-11-12T13:18:39.556Z,9.85
2022-11-12T13:21:10.443Z,12.43
2022-11-12T13:24:20.590Z,12.00
2022-11-12T13:26:52.549Z,8.48
2022-11-12T13:29:22.262Z,7.90
2022-11-12T13:31:49.509Z,8.70
2022-11-12T13:34:21.558Z,7.53
2022-11-12T13:36:59.028Z,8.27
2022-11-12T13:39:26.301Z,11.65
2022-11-12T13:42:18.383Z,11.13
2022-11-12T13:44:45.788Z,9.55
2022-11-12T13:47:18.699Z,7.95
2022-11-12T13:49:46.303Z,8.73
2022-11-12T13:52:15.723Z,9.88
2022-11-12T13:54:43.114Z,8.10
2022-11-12T13:57:24.920Z,8.30
2022-11-12T14:00:10.864Z,7.68
2022-11-12T14:02:41.642Z,7.93
2022-11-12T14:05:16.785Z,7.60
2022-11-12T14:08:00.938Z,7.73
2022-11-12T14:10:46.967Z,7.30
2022-11-12T14:13:14.264Z,8.68
2022-11-12T14:15:47.463Z,9.07
2022-11-12T14:18:20.750Z,9.30
2022-11-12T14:20:48.108Z,10.27
2022-11-12T14:23:24.420Z,12.18
2022-11-12T14:25:56.441Z,8.70
2022-11-12T14:28:27.591Z,8.07
2022-11-12T14:30:55.162Z,9.02
2022-11-12T14:33:23.365Z,10.47
2022-11-12T14:35:51.988Z,8.60
2022-11-12T14:38:21.350Z,6.90
2022-11-12T14:40:51.394Z,7.32
2022-11-12T14:43:27.135Z,8.48
2022-11-12T14:45:55.495Z,6.87
2022-11-12T14:48:22.592Z,7.90
2022-11-12T14:50:51.170Z,7.32
2022-11-12T14:53:25.218Z,6.18
2022-11-12T14:55:53.521Z,8.85
2022-11-12T14:58:21.522Z,9.50
2022-11-12T15:00:49.998Z,9.27
2022-11-12T15:03:31.881Z,8.77
2022-11-12T15:06:04.919Z,9.88
2022-11-12T15:08:33.648Z,8.52
2022-11-12T15:11:21.959Z,8.20
2022-11-12T15:13:50.145Z,10.43
2022-11-12T15:16:19.915Z,10.35
2022-11-12T15:18:59.557Z,11.90
2022-11-12T15:21:27.856Z,10.82
2022-11-12T15:24:03.670Z,13.10
2022-11-12T15:26:39.789Z,11.18
2022-11-12T15:29:09.683Z,11.70
2022-11-12T15:31:44.449Z,11.82
2022-11-12T15:34:28.013Z,20.10
2022-11-12T15:36:59.464Z,16.53
2022-11-12T15:39:27.890Z,13.07
2022-11-12T15:42:05.312Z,12.05
2022-11-12T15:44:34.339Z,14.90
2022-11-12T15:47:02.058Z,13.02
2022-11-12T15:49:29.273Z,13.97
2022-11-12T15:51:56.530Z,15.05
2022-11-12T15:54:23.851Z,13.88
2022-11-12T15:56:51.462Z,13.13
2022-11-12T15:59:19.393Z,12.15
2022-11-12T16:01:46.728Z,16.77
2022-11-12T16:04:13.980Z,22.35
2022-11-12T16:06:41.282Z,40.17
2022-11-12T16:09:08.600Z,50.17
2022-11-12T16:11:35.870Z,36.70
2022-11-12T16:14:04.720Z,27.03
2022-11-12T16:16:32.607Z,30.05
2022-11-12T16:18:59.818Z,21.77
2022-11-12T16:21:26.997Z,17.55
2022-11-12T16:23:54.240Z,14.35
2022-11-12T16:26:24.663Z,14.20
2022-11-12T16:28:51.850Z,14.77
2022-11-12T16:31:21.374Z,13.13
2022-11-12T16:33:48.492Z,15.23
2022-11-12T16:36:16.536Z,14.95
2022-11-12T16:38:44.212Z,16.90
2022-11-12T16:41:12.702Z,29.25
2022-11-12T16:43:40.185Z,30.02
2022-11-12T16:46:14.070Z,27.65
2022-11-12T16:48:41.695Z,23.88
2022-11-12T16:51:14.443Z,26.50
2022-11-12T16:53:41.689Z,34.50
2022-11-12T16:56:12.978Z,21.77
2022-11-12T16:58:41.285Z,19.63
2022-11-12T17:01:12.545Z,29.92
2022-11-12T17:03:39.887Z,24.83
2022-11-12T17:06:07.140Z,23.25
2022-11-12T17:08:34.374Z,23.65
2022-11-12T17:11:06.377Z,19.10
2022-11-12T17:13:33.475Z,22.40
2022-11-12T17:16:00.721Z,22.20
2022-11-12T17:18:28.028Z,21.48
2022-11-12T17:20:55.204Z,19.27
2022-11-12T17:23:24.426Z,20.45
2022-11-12T17:26:00.597Z,18.23
2022-11-12T17:28:28.987Z,18.00
2022-11-12T17:31:16.104Z,17.83
2022-11-12T17:33:44.523Z,16.52
2022-11-12T17:36:12.819Z,16.23
2022-11-12T17:38:39.978Z,22.25
2022-11-12T17:41:07.582Z,23.50
2022-11-12T17:43:34.883Z,21.98
2022-11-12T17:46:02.042Z,23.63
2022-11-12T17:48:30.915Z,25.77
2022-11-12T17:51:24.650Z,27.63
2022-11-12T17:53:51.986Z,29.37
2022-11-12T17:56:20.611Z,34.40
2022-11-12T17:58:48.549Z,27.05
2022-11-12T18:01:17.568Z,29.52
2022-11-12T18:03:45.528Z,26.48
2022-11-12T18:06:21.290Z,30.77
2022-11-12T18:08:48.496Z,26.38
2022-11-12T18:11:16.082Z,22.92
2022-11-12T18:13:43.305Z,20.52
2022-11-12T18:16:15.370Z,20.40
2022-11-12T18:18:42.732Z,19.77
2022-11-12T18:21:10.386Z,21.25
2022-11-12T18:23:40.757Z,22.95
2022-11-12T18:26:07.807Z,25.17
2022-11-12T18:28:35.151Z,35.53
2022-11-12T18:31:02.923Z,35.53
2022-11-12T18:33:30.726Z,30.45
2022-11-12T18:36:06.079Z,28.27
2022-11-12T18:38:36.993Z,29.05
2022-11-12T18:41:05.614Z,25.65
2022-11-12T18:43:33.071Z,26.33
2022-11-12T18:46:00.654Z,27.42
2022-11-12T18:48:28.522Z,32.97
2022-11-12T18:51:09.122Z,31.55
2022-11-12T18:53:36.714Z,28.73
2022-11-12T18:56:05.732Z,24.40
2022-11-12T18:58:35.399Z,29.88
2022-11-12T19:01:04.230Z,37.63
2022-11-12T19:03:31.639Z,25.92
2022-11-12T19:05:59.544Z,25.77
2022-11-12T19:08:26.708Z,24.23
2022-11-12T19:11:04.600Z,22.23
2022-11-12T19:13:32.452Z,28.35
2022-11-12T19:16:05.938Z,26.48
2022-11-12T19:18:33.506Z,24.23
2022-11-12T19:21:04.756Z,23.50
2022-11-12T19:23:31.851Z,23.48
2022-11-12T19:26:02.816Z,25.25
2022-11-12T19:28:30.813Z,24.90
2022-11-12T19:30:58.674Z,24.90
2022-11-12T19:33:25.793Z,21.23
2022-11-12T19:35:52.956Z,20.15
2022-11-12T19:38:20.095Z,24.20
2022-11-12T19:40:47.305Z,20.30
2022-11-12T19:43:14.480Z,20.73
2022-11-12T19:45:41.595Z,22.30
2022-11-12T19:48:08.663Z,22.55
2022-11-12T19:50:37.147Z,21.02
2022-11-12T19:53:04.526Z,22.25
2022-11-12T19:55:37.212Z,23.25
2022-11-12T19:58:07.122Z,19.67
2022-11-12T20:00:34.768Z,21.27
2022-11-12T20:03:02.040Z,25.83
2022-11-12T20:05:30.086Z,18.77
2022-11-12T20:07:57.136Z,27.42
2022-11-12T20:10:24.261Z,24.77
2022-11-12T20:12:51.479Z,26.02
2022-11-12T20:15:18.628Z,27.10
2022-11-12T20:17:48.379Z,21.90
2022-11-12T20:20:15.573Z,21.40
2022-11-12T20:22:42.719Z,21.07
2022-11-12T20:25:09.922Z,23.83
2022-11-12T20:27:37.078Z,37.00
2022-11-12T20:30:04.773Z,22.30
2022-11-12T20:32:31.995Z,21.80
2022-11-12T20:34:59.206Z,21.47
2022-11-12T20:37:26.420Z,22.02
2022-11-12T20:39:53.718Z,19.45
2022-11-12T20:42:20.857Z,20.35
2022-11-12T20:44:48.027Z,21.50
2022-11-12T20:47:15.148Z,19.10
2022-11-12T20:49:42.485Z,20.38
2022-11-12T20:52:09.786Z,23.65
2022-11-12T20:54:37.054Z,21.02
2022-11-12T20:57:04.373Z,23.17
2022-11-12T20:59:31.749Z,20.57
2022-11-12T21:01:59.424Z,19.52
2022-11-12T21:04:26.613Z,20.88
2022-11-12T21:06:58.590Z,20.10
2022-11-12T21:09:28.065Z,20.13
2022-11-12T21:11:55.405Z,21.97
2022-11-12T21:14:22.465Z,22.77
2022-11-12T21:16:49.531Z,23.70
2022-11-12T21:19:16.862Z,25.52
2022-11-12T21:21:43.998Z,27.88
2022-11-12T21:24:13.285Z,29.30
2022-11-12T21:26:40.545Z,28.85
2022-11-12T21:29:07.661Z,25.63
2022-11-12T21:31:34.730Z,26.20
2022-11-12T21:34:04.269Z,23.75
2022-11-12T21:36:32.014Z,27.17
2022-11-12T21:38:59.150Z,24.00
2022-11-12T21:41:27.440Z,22.50
2022-11-12T21:43:54.960Z,20.77
2022-11-12T21:46:23.413Z,20.27
2022-11-12T21:48:54.793Z,19.67
2022-11-12T21:51:26.639Z,18.75
2022-11-12T21:53:58.269Z,16.90
2022-11-12T21:56:25.713Z,18.27
2022-11-12T21:58:54.152Z,17.52
2022-11-12T22:01:25.175Z,19.83
2022-11-12T22:03:53.381Z,50.15
2022-11-12T22:06:21.530Z,41.78
2022-11-12T22:08:51.864Z,39.70
2022-11-12T22:11:19.303Z,32.05
2022-11-12T22:13:46.450Z,34.20
2022-11-12T22:16:14.546Z,32.33
2022-11-12T22:18:41.708Z,25.75
2022-11-12T22:21:10.685Z,22.77
2022-11-12T22:23:38.058Z,25.15
2022-11-12T22:26:06.074Z,23.87
2022-11-12T22:28:34.411Z,23.27
2022-11-12T22:31:08.996Z,23.45
2022-11-12T22:33:36.363Z,20.55
2022-11-12T22:36:08.729Z,19.77
2022-11-12T22:38:36.749Z,20.10
2022-11-12T22:41:05.264Z,18.40
2022-11-12T22:43:32.757Z,19.02
2022-11-12T22:46:07.095Z,18.25
2022-11-12T22:48:34.497Z,17.83
2022-11-12T22:51:02.519Z,20.10
2022-11-12T22:53:29.782Z,18.42
2022-11-12T22:56:02.011Z,21.33
2022-11-12T22:58:29.485Z,17.90
2022-11-12T23:00:56.806Z,19.38
2022-11-12T23:03:23.999Z,19.30
2022-11-12T23:05:57.165Z,20.02
2022-11-12T23:08:25.088Z,18.70
2022-11-12T23:10:53.097Z,19.52
2022-11-12T23:13:20.429Z,20.17
2022-11-12T23:15:48.111Z,24.77
2022-11-12T23:18:15.322Z,21.77
2022-11-12T23:20:42.470Z,19.83
2022-11-12T23:23:09.688Z,22.05
2022-11-12T23:25:37.045Z,18.95
2022-11-12T23:28:07.556Z,17.83
2022-11-12T23:30:35.111Z,18.33
2022-11-12T23:33:02.632Z,21.00
2022-11-12T23:35:30.228Z,19.23
2022-11-12T23:37:57.402Z,21.48
2022-11-12T23:40:29.794Z,19.33
2022-11-12T23:42:58.187Z,22.80
2022-11-12T23:45:25.357Z,21.23
2022-11-12T23:47:52.789Z,17.23
2022-11-12T23:50:19.869Z,23.10
2022-11-12T23:52:46.958Z,19.37
2022-11-12T23:55:14.144Z,21.95
2022-11-12T23:57:41.202Z,20.92
